sensor_id;sensor_type;location;lat;lon;timestamp;pressure;altitude;pressure_sealevel;temperature;humidity
15294;BME280;7748;52.474;13.454;2022-08-19T00:01:38;58734.78;;;-145.20;100.00
15294;BME280;7748;52.474;13.454;2022-08-19T00:04:09;58734.78;;;-145.20;100.00
15294;BME280;7748;52.474;13.454;2022-08-19T00:06:40;58734.78;;;-145.20;100.00
15294;BME280;7748;52.474;13.454;2022-08-19T00:09:11;58734.78;;;-145.20;100.00
15294;BME280;7748;52.474;13.454;2022-08-19T00:11:39;58734.78;;;-145.20;100.00
15294;BME280;7748;52.474;13.454;2022-08-19T00:14:08;58734.78;;;-145.20;100.00
15294;BME280;7748;52.474;13.454;2022-08-19T00:16:37;58734.78;;;-145.20;100.00
15294;BME280;7748;52.474;13.454;2022-08-19T00:19:05;58734.78;;;-145.20;100.00
15294;BME280;7748;52.474;13.454;2022-08-19T00:21:33;58734.78;;;-145.20;100.00
15294;BME280;7748;52.474;13.454;2022-08-19T00:24:05;58734.78;;;-145.20;100.00
15294;BME280;7748;52.474;13.454;2022-08-19T00:26:32;58734.78;;;-145.20;100.00
15294;BME280;7748;52.474;13.454;2022-08-19T00:29:00;58734.78;;;-145.20;100.00
15294;BME280;7748;52.474;13.454;2022-08-19T00:31:28;58734.78;;;-145.20;100.00
15294;BME280;7748;52.474;13.454;2022-08-19T00:33:57;58734.78;;;-145.20;100.00
15294;BME280;7748;52.474;13.454;2022-08-19T00:36:25;58734.78;;;-145.20;100.00
15294;BME280;7748;52.474;13.454;2022-08-19T00:38:55;58734.78;;;-145.20;100.00
15294;BME280;7748;52.474;13.454;2022-08-19T00:41:24;58734.78;;;-145.20;100.00
15294;BME280;7748;52.474;13.454;2022-08-19T00:44:00;58734.78;;;-145.20;100.00
15294;BME280;7748;52.474;13.454;2022-08-19T00:46:29;58734.78;;;-145.20;100.00
15294;BME280;7748;52.474;13.454;2022-08-19T00:48:56;58734.78;;;-145.20;100.00
15294;BME280;7748;52.474;13.454;2022-08-19T00:51:26;58734.78;;;-145.20;100.00
15294;BME280;7748;52.474;13.454;2022-08-19T00:53:56;58734.78;;;-145.20;100.00
15294;BME280;7748;52.474;13.454;2022-08-19T00:56:27;58734.78;;;-145.20;100.00
15294;BME280;7748;52.474;13.454;2022-08-19T00:58:56;58734.78;;;-145.20;100.00
15294;BME280;7748;52.474;13.454;2022-08-19T01:01:26;58734.78;;;-145.20;100.00
15294;BME280;7748;52.474;13.454;2022-08-19T01:03:53;58734.78;;;-145.20;100.00
15294;BME280;7748;52.474;13.454;2022-08-19T01:06:24;58734.78;;;-145.20;100.00
15294;BME280;7748;52.474;13.454;2022-08-19T01:08:53;58734.78;;;-145.20;100.00
15294;BME280;7748;52.474;13.454;2022-08-19T01:11:21;58734.78;;;-145.20;100.00
15294;BME280;7748;52.474;13.454;2022-08-19T01:13:52;58734.78;;;-145.20;100.00
15294;BME280;7748;52.474;13.454;2022-08-19T01:16:22;58734.78;;;-145.20;100.00
15294;BME280;7748;52.474;13.454;2022-08-19T01:18:51;58734.78;;;-145.20;100.00
15294;BME280;7748;52.474;13.454;2022-08-19T01:21:23;58734.78;;;-145.20;100.00
15294;BME280;7748;52.474;13.454;2022-08-19T01:23:54;58734.78;;;-145.20;100.00
15294;BME280;7748;52.474;13.454;2022-08-19T01:26:24;58734.78;;;-145.20;100.00
15294;BME280;7748;52.474;13.454;2022-08-19T01:28:54;58734.78;;;-145.20;100.00
15294;BME280;7748;52.474;13.454;2022-08-19T01:31:28;58734.78;;;-145.20;100.00
15294;BME280;7748;52.474;13.454;2022-08-19T01:33:59;58734.78;;;-145.20;100.00
15294;BME280;7748;52.474;13.454;2022-08-19T01:36:30;58734.78;;;-145.20;100.00
15294;BME280;7748;52.474;13.454;2022-08-19T01:39:00;58734.78;;;-145.20;100.00
15294;BME280;7748;52.474;13.454;2022-08-19T01:41:28;58734.78;;;-145.20;100.00
15294;BME280;7748;52.474;13.454;2022-08-19T01:43:55;58734.78;;;-145.20;100.00
15294;BME280;7748;52.474;13.454;2022-08-19T01:46:43;58734.78;;;-145.20;100.00
15294;BME280;7748;52.474;13.454;2022-08-19T01:49:11;58734.78;;;-145.20;100.00
15294;BME280;7748;52.474;13.454;2022-08-19T01:51:39;58734.78;;;-145.20;100.00
15294;BME280;7748;52.474;13.454;2022-08-19T01:54:09;58734.78;;;-145.20;100.00
15294;BME280;7748;52.474;13.454;2022-08-19T01:56:39;58734.78;;;-145.20;100.00
15294;BME280;7748;52.474;13.454;2022-08-19T01:59:10;58734.78;;;-145.20;100.00
15294;BME280;7748;52.474;13.454;2022-08-19T02:01:40;58734.78;;;-145.20;100.00
15294;BME280;7748;52.474;13.454;2022-08-19T02:04:08;58734.78;;;-145.20;100.00
15294;BME280;7748;52.474;13.454;2022-08-19T02:06:36;58734.78;;;-145.20;100.00
15294;BME280;7748;52.474;13.454;2022-08-19T02:09:06;58734.78;;;-145.20;100.00
15294;BME280;7748;52.474;13.454;2022-08-19T02:11:37;58734.78;;;-145.20;100.00
15294;BME280;7748;52.474;13.454;2022-08-19T02:14:07;58734.78;;;-145.20;100.00
15294;BME280;7748;52.474;13.454;2022-08-19T02:16:36;58734.78;;;-145.20;100.00
15294;BME280;7748;52.474;13.454;2022-08-19T02:19:04;58734.78;;;-145.20;100.00
15294;BME280;7748;52.474;13.454;2022-08-19T02:21:33;58734.78;;;-145.20;100.00
15294;BME280;7748;52.474;13.454;2022-08-19T02:24:02;58734.78;;;-145.20;100.00
15294;BME280;7748;52.474;13.454;2022-08-19T02:26:31;58734.78;;;-145.20;100.00
15294;BME280;7748;52.474;13.454;2022-08-19T02:29:00;58734.78;;;-145.20;100.00
15294;BME280;7748;52.474;13.454;2022-08-19T02:31:28;58734.78;;;-145.20;100.00
15294;BME280;7748;52.474;13.454;2022-08-19T02:33:56;58734.78;;;-145.20;100.00
15294;BME280;7748;52.474;13.454;2022-08-19T02:36:25;58734.78;;;-145.20;100.00
15294;BME280;7748;52.474;13.454;2022-08-19T02:38:55;58734.78;;;-145.20;100.00
15294;BME280;7748;52.474;13.454;2022-08-19T02:41:24;58734.78;;;-145.20;100.00
15294;BME280;7748;52.474;13.454;2022-08-19T02:43:53;58734.78;;;-145.20;100.00
15294;BME280;7748;52.474;13.454;2022-08-19T02:46:42;58734.78;;;-145.20;100.00
15294;BME280;7748;52.474;13.454;2022-08-19T02:49:11;58734.78;;;-145.20;100.00
15294;BME280;7748;52.474;13.454;2022-08-19T02:51:40;58734.78;;;-145.20;100.00
15294;BME280;7748;52.474;13.454;2022-08-19T02:54:10;58734.78;;;-145.20;100.00
15294;BME280;7748;52.474;13.454;2022-08-19T02:56:40;58734.78;;;-145.20;100.00
15294;BME280;7748;52.474;13.454;2022-08-19T02:59:08;58734.78;;;-145.20;100.00
15294;BME280;7748;52.474;13.454;2022-08-19T03:01:38;58734.78;;;-145.20;100.00
15294;BME280;7748;52.474;13.454;2022-08-19T03:04:10;58734.78;;;-145.20;100.00
15294;BME280;7748;52.474;13.454;2022-08-19T03:06:39;58734.78;;;-145.20;100.00
15294;BME280;7748;52.474;13.454;2022-08-19T03:09:08;58734.78;;;-145.20;100.00
15294;BME280;7748;52.474;13.454;2022-08-19T03:11:36;58734.78;;;-145.20;100.00
15294;BME280;7748;52.474;13.454;2022-08-19T03:14:05;58734.78;;;-145.20;100.00
15294;BME280;7748;52.474;13.454;2022-08-19T03:16:42;58734.78;;;-145.20;100.00
15294;BME280;7748;52.474;13.454;2022-08-19T03:19:11;58734.78;;;-145.20;100.00
15294;BME280;7748;52.474;13.454;2022-08-19T03:21:39;58734.78;;;-145.20;100.00
15294;BME280;7748;52.474;13.454;2022-08-19T03:24:08;58734.78;;;-145.20;100.00
15294;BME280;7748;52.474;13.454;2022-08-19T03:26:38;58734.78;;;-145.20;100.00
15294;BME280;7748;52.474;13.454;2022-08-19T03:29:07;58734.78;;;-145.20;100.00
15294;BME280;7748;52.474;13.454;2022-08-19T03:31:40;58734.78;;;-145.20;100.00
15294;BME280;7748;52.474;13.454;2022-08-19T03:34:21;58734.78;;;-145.20;100.00
15294;BME280;7748;52.474;13.454;2022-08-19T03:36:53;58734.78;;;-145.20;100.00
15294;BME280;7748;52.474;13.454;2022-08-19T03:39:21;58734.78;;;-145.20;100.00
15294;BME280;7748;52.474;13.454;2022-08-19T03:41:53;58734.78;;;-145.20;100.00
15294;BME280;7748;52.474;13.454;2022-08-19T03:44:43;58734.78;;;-145.20;100.00
15294;BME280;7748;52.474;13.454;2022-08-19T03:47:12;58734.78;;;-145.20;100.00
15294;BME280;7748;52.474;13.454;2022-08-19T03:49:44;58734.78;;;-145.20;100.00
15294;BME280;7748;52.474;13.454;2022-08-19T03:52:12;58734.78;;;-145.20;100.00
15294;BME280;7748;52.474;13.454;2022-08-19T03:54:40;58734.78;;;-145.20;100.00
15294;BME280;7748;52.474;13.454;2022-08-19T03:57:08;58734.78;;;-145.20;100.00
15294;BME280;7748;52.474;13.454;2022-08-19T03:59:37;58734.78;;;-145.20;100.00
15294;BME280;7748;52.474;13.454;2022-08-19T04:02:08;58734.78;;;-145.20;100.00
15294;BME280;7748;52.474;13.454;2022-08-19T04:04:40;58734.78;;;-145.20;100.00
15294;BME280;7748;52.474;13.454;2022-08-19T04:07:12;58734.78;;;-145.20;100.00
15294;BME280;7748;52.474;13.454;2022-08-19T04:09:42;58734.78;;;-145.20;100.00
15294;BME280;7748;52.474;13.454;2022-08-19T04:12:10;58734.78;;;-145.20;100.00
15294;BME280;7748;52.474;13.454;2022-08-19T04:14:37;58734.78;;;-145.20;100.00
15294;BME280;7748;52.474;13.454;2022-08-19T04:17:05;58734.78;;;-145.20;100.00
15294;BME280;7748;52.474;13.454;2022-08-19T04:19:35;58734.78;;;-145.20;100.00
15294;BME280;7748;52.474;13.454;2022-08-19T04:22:03;58734.78;;;-145.20;100.00
15294;BME280;7748;52.474;13.454;2022-08-19T04:24:35;58734.78;;;-145.20;100.00
15294;BME280;7748;52.474;13.454;2022-08-19T04:27:03;58734.78;;;-145.20;100.00
15294;BME280;7748;52.474;13.454;2022-08-19T04:29:32;58734.78;;;-145.20;100.00
15294;BME280;7748;52.474;13.454;2022-08-19T04:32:01;58734.78;;;-145.20;100.00
15294;BME280;7748;52.474;13.454;2022-08-19T04:34:37;58734.78;;;-145.20;100.00
15294;BME280;7748;52.474;13.454;2022-08-19T04:37:25;58734.78;;;-145.20;100.00
15294;BME280;7748;52.474;13.454;2022-08-19T04:40:04;58734.78;;;-145.20;100.00
15294;BME280;7748;52.474;13.454;2022-08-19T04:42:49;58734.78;;;-145.20;100.00
15294;BME280;7748;52.474;13.454;2022-08-19T04:45:17;58734.78;;;-145.20;100.00
15294;BME280;7748;52.474;13.454;2022-08-19T04:47:48;58734.78;;;-145.20;100.00
15294;BME280;7748;52.474;13.454;2022-08-19T04:50:24;58734.78;;;-145.20;100.00
15294;BME280;7748;52.474;13.454;2022-08-19T04:52:52;58734.78;;;-145.20;100.00
15294;BME280;7748;52.474;13.454;2022-08-19T04:55:23;58734.78;;;-145.20;100.00
15294;BME280;7748;52.474;13.454;2022-08-19T04:57:52;58734.78;;;-145.20;100.00
15294;BME280;7748;52.474;13.454;2022-08-19T05:00:20;58734.78;;;-145.20;100.00
15294;BME280;7748;52.474;13.454;2022-08-19T05:02:48;58734.78;;;-145.20;100.00
15294;BME280;7748;52.474;13.454;2022-08-19T05:05:17;58734.78;;;-145.20;100.00
15294;BME280;7748;52.474;13.454;2022-08-19T05:07:46;58734.78;;;-145.20;100.00
15294;BME280;7748;52.474;13.454;2022-08-19T05:10:14;58734.78;;;-145.20;100.00
15294;BME280;7748;52.474;13.454;2022-08-19T05:12:43;58734.78;;;-145.20;100.00
15294;BME280;7748;52.474;13.454;2022-08-19T05:15:11;58734.78;;;-145.20;100.00
15294;BME280;7748;52.474;13.454;2022-08-19T05:17:39;58734.78;;;-145.20;100.00
15294;BME280;7748;52.474;13.454;2022-08-19T05:20:28;58734.78;;;-145.20;100.00
15294;BME280;7748;52.474;13.454;2022-08-19T05:23:14;58734.78;;;-145.20;100.00
15294;BME280;7748;52.474;13.454;2022-08-19T05:25:48;58734.78;;;-145.20;100.00
15294;BME280;7748;52.474;13.454;2022-08-19T05:28:18;58734.78;;;-145.20;100.00
15294;BME280;7748;52.474;13.454;2022-08-19T05:30:46;58734.78;;;-145.20;100.00
15294;BME280;7748;52.474;13.454;2022-08-19T05:33:14;58734.78;;;-145.20;100.00
15294;BME280;7748;52.474;13.454;2022-08-19T05:35:42;58734.78;;;-145.20;100.00
15294;BME280;7748;52.474;13.454;2022-08-19T05:38:10;58734.78;;;-145.20;100.00
15294;BME280;7748;52.474;13.454;2022-08-19T05:40:39;58734.78;;;-145.20;100.00
15294;BME280;7748;52.474;13.454;2022-08-19T05:43:07;58734.78;;;-145.20;100.00
15294;BME280;7748;52.474;13.454;2022-08-19T05:45:39;58734.78;;;-145.20;100.00
15294;BME280;7748;52.474;13.454;2022-08-19T05:48:08;58734.78;;;-145.20;100.00
15294;BME280;7748;52.474;13.454;2022-08-19T05:50:42;58734.78;;;-145.20;100.00
15294;BME280;7748;52.474;13.454;2022-08-19T05:53:17;58734.78;;;-145.20;100.00
15294;BME280;7748;52.474;13.454;2022-08-19T05:55:45;58734.78;;;-145.20;100.00
15294;BME280;7748;52.474;13.454;2022-08-19T05:58:12;58734.78;;;-145.20;100.00
15294;BME280;7748;52.474;13.454;2022-08-19T06:00:42;58734.78;;;-145.20;100.00
15294;BME280;7748;52.474;13.454;2022-08-19T06:03:11;58734.78;;;-145.20;100.00
15294;BME280;7748;52.474;13.454;2022-08-19T06:05:40;58734.78;;;-145.20;100.00
15294;BME280;7748;52.474;13.454;2022-08-19T06:08:18;58734.78;;;-145.20;100.00
15294;BME280;7748;52.474;13.454;2022-08-19T06:11:12;58734.78;;;-145.20;100.00
15294;BME280;7748;52.474;13.454;2022-08-19T06:13:40;58734.78;;;-145.20;100.00
15294;BME280;7748;52.474;13.454;2022-08-19T06:16:10;58734.78;;;-145.20;100.00
15294;BME280;7748;52.474;13.454;2022-08-19T06:18:38;58734.78;;;-145.20;100.00
15294;BME280;7748;52.474;13.454;2022-08-19T06:21:06;58734.78;;;-145.20;100.00
15294;BME280;7748;52.474;13.454;2022-08-19T06:23:34;58734.78;;;-145.20;100.00
15294;BME280;7748;52.474;13.454;2022-08-19T06:26:01;58734.78;;;-145.20;100.00
15294;BME280;7748;52.474;13.454;2022-08-19T06:28:29;58734.78;;;-145.20;100.00
15294;BME280;7748;52.474;13.454;2022-08-19T06:31:00;58734.78;;;-145.20;100.00
15294;BME280;7748;52.474;13.454;2022-08-19T06:33:34;58734.78;;;-145.20;100.00
15294;BME280;7748;52.474;13.454;2022-08-19T06:36:02;58734.78;;;-145.20;100.00
15294;BME280;7748;52.474;13.454;2022-08-19T06:38:31;58734.78;;;-145.20;100.00
15294;BME280;7748;52.474;13.454;2022-08-19T06:41:01;58734.78;;;-145.20;100.00
15294;BME280;7748;52.474;13.454;2022-08-19T06:43:33;58734.78;;;-145.20;100.00
15294;BME280;7748;52.474;13.454;2022-08-19T06:46:10;58734.78;;;-145.20;100.00
15294;BME280;7748;52.474;13.454;2022-08-19T06:48:42;58734.78;;;-145.20;100.00
15294;BME280;7748;52.474;13.454;2022-08-19T06:51:12;58734.78;;;-145.20;100.00
15294;BME280;7748;52.474;13.454;2022-08-19T06:53:45;58734.78;;;-145.20;100.00
15294;BME280;7748;52.474;13.454;2022-08-19T06:56:14;58734.78;;;-145.20;100.00
15294;BME280;7748;52.474;13.454;2022-08-19T06:58:42;58734.78;;;-145.20;100.00
15294;BME280;7748;52.474;13.454;2022-08-19T07:01:10;58734.78;;;-145.20;100.00
15294;BME280;7748;52.474;13.454;2022-08-19T07:03:38;58734.78;;;-145.20;100.00
15294;BME280;7748;52.474;13.454;2022-08-19T07:06:11;58734.78;;;-145.20;100.00
15294;BME280;7748;52.474;13.454;2022-08-19T07:09:01;58734.78;;;-145.20;100.00
15294;BME280;7748;52.474;13.454;2022-08-19T07:11:29;58734.78;;;-145.20;100.00
15294;BME280;7748;52.474;13.454;2022-08-19T07:14:00;58734.78;;;-145.20;100.00
15294;BME280;7748;52.474;13.454;2022-08-19T07:16:28;58734.78;;;-145.20;100.00
15294;BME280;7748;52.474;13.454;2022-08-19T07:18:57;58734.78;;;-145.20;100.00
15294;BME280;7748;52.474;13.454;2022-08-19T07:21:42;58734.78;;;-145.20;100.00
15294;BME280;7748;52.474;13.454;2022-08-19T07:24:10;58734.78;;;-145.20;100.00
15294;BME280;7748;52.474;13.454;2022-08-19T07:26:41;58734.78;;;-145.20;100.00
15294;BME280;7748;52.474;13.454;2022-08-19T07:29:09;58734.78;;;-145.20;100.00
15294;BME280;7748;52.474;13.454;2022-08-19T07:31:39;58734.78;;;-145.20;100.00
15294;BME280;7748;52.474;13.454;2022-08-19T07:34:11;58734.78;;;-145.20;100.00
15294;BME280;7748;52.474;13.454;2022-08-19T07:36:42;58734.78;;;-145.20;100.00
15294;BME280;7748;52.474;13.454;2022-08-19T07:39:13;58734.78;;;-145.20;100.00
15294;BME280;7748;52.474;13.454;2022-08-19T07:41:42;58734.78;;;-145.20;100.00
15294;BME280;7748;52.474;13.454;2022-08-19T07:44:10;58734.78;;;-145.20;100.00
15294;BME280;7748;52.474;13.454;2022-08-19T07:46:41;58734.78;;;-145.20;100.00
15294;BME280;7748;52.474;13.454;2022-08-19T07:49:14;58734.78;;;-145.20;100.00
15294;BME280;7748;52.474;13.454;2022-08-19T07:51:49;58734.78;;;-145.20;100.00
15294;BME280;7748;52.474;13.454;2022-08-19T07:54:19;58734.78;;;-145.20;100.00
15294;BME280;7748;52.474;13.454;2022-08-19T07:56:47;58734.78;;;-145.20;100.00
15294;BME280;7748;52.474;13.454;2022-08-19T07:59:18;58734.78;;;-145.20;100.00
15294;BME280;7748;52.474;13.454;2022-08-19T08:01:47;58734.78;;;-145.20;100.00
15294;BME280;7748;52.474;13.454;2022-08-19T08:04:17;58734.78;;;-145.20;100.00
15294;BME280;7748;52.474;13.454;2022-08-19T08:07:12;58734.78;;;-145.20;100.00
15294;BME280;7748;52.474;13.454;2022-08-19T08:09:58;58734.78;;;-145.20;100.00
15294;BME280;7748;52.474;13.454;2022-08-19T08:12:35;58734.78;;;-145.20;100.00
15294;BME280;7748;52.474;13.454;2022-08-19T08:15:10;58734.78;;;-145.20;100.00
15294;BME280;7748;52.474;13.454;2022-08-19T08:17:43;58734.78;;;-145.20;100.00
15294;BME280;7748;52.474;13.454;2022-08-19T08:20:17;58734.78;;;-145.20;100.00
15294;BME280;7748;52.474;13.454;2022-08-19T08:22:47;58734.78;;;-145.20;100.00
15294;BME280;7748;52.474;13.454;2022-08-19T08:25:33;58734.78;;;-145.20;100.00
15294;BME280;7748;52.474;13.454;2022-08-19T08:28:02;58734.78;;;-145.20;100.00
15294;BME280;7748;52.474;13.454;2022-08-19T08:30:31;58734.78;;;-145.20;100.00
15294;BME280;7748;52.474;13.454;2022-08-19T08:33:02;58734.78;;;-145.20;100.00
15294;BME280;7748;52.474;13.454;2022-08-19T08:35:30;58734.78;;;-145.20;100.00
15294;BME280;7748;52.474;13.454;2022-08-19T08:37:59;58734.78;;;-145.20;100.00
15294;BME280;7748;52.474;13.454;2022-08-19T08:40:34;58734.78;;;-145.20;100.00
15294;BME280;7748;52.474;13.454;2022-08-19T08:43:20;58734.78;;;-145.20;100.00
15294;BME280;7748;52.474;13.454;2022-08-19T08:45:54;58734.78;;;-145.20;100.00
15294;BME280;7748;52.474;13.454;2022-08-19T08:48:27;58734.78;;;-145.20;100.00
15294;BME280;7748;52.474;13.454;2022-08-19T08:51:02;58734.78;;;-145.20;100.00
15294;BME280;7748;52.474;13.454;2022-08-19T08:53:32;58734.78;;;-145.20;100.00
15294;BME280;7748;52.474;13.454;2022-08-19T08:56:08;58734.78;;;-145.20;100.00
15294;BME280;7748;52.474;13.454;2022-08-19T08:58:49;58734.78;;;-145.20;100.00
15294;BME280;7748;52.474;13.454;2022-08-19T09:01:20;58734.78;;;-145.20;100.00
15294;BME280;7748;52.474;13.454;2022-08-19T09:03:49;58734.78;;;-145.20;100.00
15294;BME280;7748;52.474;13.454;2022-08-19T09:06:22;58734.78;;;-145.20;100.00
15294;BME280;7748;52.474;13.454;2022-08-19T09:09:01;58734.78;;;-145.20;100.00
15294;BME280;7748;52.474;13.454;2022-08-19T09:11:48;58734.78;;;-145.20;100.00
15294;BME280;7748;52.474;13.454;2022-08-19T09:14:30;58734.78;;;-145.20;100.00
15294;BME280;7748;52.474;13.454;2022-08-19T09:17:17;58734.78;;;-145.20;100.00
15294;BME280;7748;52.474;13.454;2022-08-19T09:19:51;58734.78;;;-145.20;100.00
15294;BME280;7748;52.474;13.454;2022-08-19T09:22:19;58734.78;;;-145.20;100.00
15294;BME280;7748;52.474;13.454;2022-08-19T09:24:54;58734.78;;;-145.20;100.00
15294;BME280;7748;52.474;13.454;2022-08-19T09:27:23;58734.78;;;-145.20;100.00
15294;BME280;7748;52.474;13.454;2022-08-19T09:30:12;58734.78;;;-145.20;100.00
15294;BME280;7748;52.474;13.454;2022-08-19T09:32:41;58734.78;;;-145.20;100.00
15294;BME280;7748;52.474;13.454;2022-08-19T09:35:09;58734.78;;;-145.20;100.00
15294;BME280;7748;52.474;13.454;2022-08-19T09:37:38;58734.78;;;-145.20;100.00
15294;BME280;7748;52.474;13.454;2022-08-19T09:40:08;58734.78;;;-145.20;100.00
15294;BME280;7748;52.474;13.454;2022-08-19T09:42:37;58734.78;;;-145.20;100.00
15294;BME280;7748;52.474;13.454;2022-08-19T09:45:18;58734.78;;;-145.20;100.00
15294;BME280;7748;52.474;13.454;2022-08-19T09:47:47;58734.78;;;-145.20;100.00
15294;BME280;7748;52.474;13.454;2022-08-19T09:50:21;58734.78;;;-145.20;100.00
15294;BME280;7748;52.474;13.454;2022-08-19T09:52:49;58734.78;;;-145.20;100.00
15294;BME280;7748;52.474;13.454;2022-08-19T09:55:24;58734.78;;;-145.20;100.00
15294;BME280;7748;52.474;13.454;2022-08-19T09:57:59;58734.78;;;-145.20;100.00
15294;BME280;7748;52.474;13.454;2022-08-19T10:00:32;58734.78;;;-145.20;100.00
15294;BME280;7748;52.474;13.454;2022-08-19T10:03:00;58734.78;;;-145.20;100.00
15294;BME280;7748;52.474;13.454;2022-08-19T10:05:28;58734.78;;;-145.20;100.00
15294;BME280;7748;52.474;13.454;2022-08-19T10:08:15;58734.78;;;-145.20;100.00
15294;BME280;7748;52.474;13.454;2022-08-19T10:10:45;58734.78;;;-145.20;100.00
15294;BME280;7748;52.474;13.454;2022-08-19T10:13:15;58734.78;;;-145.20;100.00
15294;BME280;7748;52.474;13.454;2022-08-19T10:15:43;58734.78;;;-145.20;100.00
15294;BME280;7748;52.474;13.454;2022-08-19T10:18:14;58734.78;;;-145.20;100.00
15294;BME280;7748;52.474;13.454;2022-08-19T10:20:45;58734.78;;;-145.20;100.00
15294;BME280;7748;52.474;13.454;2022-08-19T10:23:17;58734.78;;;-145.20;100.00
15294;BME280;7748;52.474;13.454;2022-08-19T10:25:48;58734.78;;;-145.20;100.00
15294;BME280;7748;52.474;13.454;2022-08-19T10:28:17;58734.78;;;-145.20;100.00
15294;BME280;7748;52.474;13.454;2022-08-19T10:30:45;58734.78;;;-145.20;100.00
15294;BME280;7748;52.474;13.454;2022-08-19T10:33:14;58734.78;;;-145.20;100.00
15294;BME280;7748;52.474;13.454;2022-08-19T10:36:03;58734.78;;;-145.20;100.00
15294;BME280;7748;52.474;13.454;2022-08-19T10:38:31;58734.78;;;-145.20;100.00
15294;BME280;7748;52.474;13.454;2022-08-19T10:41:08;58734.78;;;-145.20;100.00
15294;BME280;7748;52.474;13.454;2022-08-19T10:43:36;58734.78;;;-145.20;100.00
15294;BME280;7748;52.474;13.454;2022-08-19T10:46:07;58734.78;;;-145.20;100.00
15294;BME280;7748;52.474;13.454;2022-08-19T10:48:42;58734.78;;;-145.20;100.00
15294;BME280;7748;52.474;13.454;2022-08-19T10:51:11;58734.78;;;-145.20;100.00
15294;BME280;7748;52.474;13.454;2022-08-19T10:53:57;58734.78;;;-145.20;100.00
15294;BME280;7748;52.474;13.454;2022-08-19T11:14:33;100551.94;;;24.64;100.00
15294;BME280;7748;52.474;13.454;2022-08-19T11:17:03;100553.84;;;24.59;100.00
15294;BME280;7748;52.474;13.454;2022-08-19T11:19:32;100545.72;;;24.65;100.00
15294;BME280;7748;52.474;13.454;2022-08-19T11:22:00;100550.09;;;24.66;100.00
15294;BME280;7748;52.474;13.454;2022-08-19T11:24:29;100551.31;;;24.85;100.00
15294;BME280;7748;52.474;13.454;2022-08-19T11:27:01;100550.00;;;24.69;100.00
15294;BME280;7748;52.474;13.454;2022-08-19T11:29:32;100549.34;;;24.93;100.00
15294;BME280;7748;52.474;13.454;2022-08-19T11:32:03;100552.72;;;24.98;100.00
15294;BME280;7748;52.474;13.454;2022-08-19T11:34:32;100551.97;;;24.95;100.00
15294;BME280;7748;52.474;13.454;2022-08-19T11:37:02;100552.38;;;25.11;100.00
15294;BME280;7748;52.474;13.454;2022-08-19T11:39:31;100550.47;;;25.16;100.00
15294;BME280;7748;52.474;13.454;2022-08-19T11:42:00;100543.56;;;25.40;100.00
15294;BME280;7748;52.474;13.454;2022-08-19T11:44:29;100546.38;;;25.64;100.00
15294;BME280;7748;52.474;13.454;2022-08-19T11:46:58;100548.75;;;25.73;100.00
15294;BME280;7748;52.474;13.454;2022-08-19T11:49:34;100557.28;;;25.84;100.00
15294;BME280;7748;52.474;13.454;2022-08-19T11:52:03;58734.78;;;25.73;100.00
15294;BME280;7748;52.474;13.454;2022-08-19T11:54:30;58734.78;;;25.30;100.00
15294;BME280;7748;52.474;13.454;2022-08-19T11:56:58;100566.75;;;25.04;100.00
15294;BME280;7748;52.474;13.454;2022-08-19T11:59:27;100574.81;;;25.02;100.00
15294;BME280;7748;52.474;13.454;2022-08-19T12:01:55;100569.16;;;25.13;100.00
15294;BME280;7748;52.474;13.454;2022-08-19T12:04:25;100577.16;;;25.44;100.00
15294;BME280;7748;52.474;13.454;2022-08-19T12:06:53;100570.38;;;25.62;100.00
15294;BME280;7748;52.474;13.454;2022-08-19T12:09:24;100574.88;;;25.90;100.00
15294;BME280;7748;52.474;13.454;2022-08-19T12:11:56;100577.22;;;25.99;100.00
15294;BME280;7748;52.474;13.454;2022-08-19T12:14:24;100572.84;;;25.98;100.00
15294;BME280;7748;52.474;13.454;2022-08-19T12:16:54;100575.63;;;25.65;100.00
15294;BME280;7748;52.474;13.454;2022-08-19T12:19:22;100584.44;;;25.37;100.00
15294;BME280;7748;52.474;13.454;2022-08-19T12:21:52;100580.13;;;25.33;100.00
15294;BME280;7748;52.474;13.454;2022-08-19T12:24:21;100588.00;;;25.66;100.00
15294;BME280;7748;52.474;13.454;2022-08-19T12:26:50;100580.72;;;26.01;100.00
15294;BME280;7748;52.474;13.454;2022-08-19T12:29:21;100589.34;;;26.36;100.00
15294;BME280;7748;52.474;13.454;2022-08-19T12:31:54;100581.38;;;26.62;100.00
15294;BME280;7748;52.474;13.454;2022-08-19T12:34:27;100576.13;;;26.59;100.00
15294;BME280;7748;52.474;13.454;2022-08-19T12:37:01;100582.97;;;26.66;100.00
15294;BME280;7748;52.474;13.454;2022-08-19T12:39:29;100583.50;;;26.51;100.00
15294;BME280;7748;52.474;13.454;2022-08-19T12:41:57;100581.50;;;26.31;100.00
15294;BME280;7748;52.474;13.454;2022-08-19T12:44:26;100590.97;;;26.40;100.00
15294;BME280;7748;52.474;13.454;2022-08-19T12:46:57;100582.06;;;26.41;100.00
15294;BME280;7748;52.474;13.454;2022-08-19T12:49:27;100580.78;;;26.26;100.00
15294;BME280;7748;52.474;13.454;2022-08-19T12:52:16;100579.22;;;26.45;100.00
15294;BME280;7748;52.474;13.454;2022-08-19T12:54:49;100568.03;;;26.36;100.00
15294;BME280;7748;52.474;13.454;2022-08-19T12:57:21;100565.75;;;43.48;100.00
15294;BME280;7748;52.474;13.454;2022-08-19T13:00:00;100576.44;;;26.23;100.00
15294;BME280;7748;52.474;13.454;2022-08-19T13:02:31;100573.78;;;26.23;100.00
15294;BME280;7748;52.474;13.454;2022-08-19T13:05:06;100579.59;;;26.08;100.00
15294;BME280;7748;52.474;13.454;2022-08-19T13:07:36;100590.03;;;26.16;100.00
15294;BME280;7748;52.474;13.454;2022-08-19T13:10:06;100595.84;;;26.27;100.00